createdAt,value
2022-12-20T00:01:44.800Z,11.40
2022-12-20T00:04:46.609Z,11.40
2022-12-20T00:07:48.373Z,11.40
2022-12-20T00:10:50.857Z,11.40
2022-12-20T00:13:52.839Z,11.40
2022-12-20T00:16:54.552Z,11.50
2022-12-20T00:19:56.524Z,11.40
2022-12-20T00:22:58.365Z,11.50
2022-12-20T00:26:27.373Z,11.50
2022-12-20T00:29:29.095Z,11.50
2022-12-20T00:32:30.954Z,11.60
2022-12-20T00:35:32.721Z,11.60
2022-12-20T00:38:36.447Z,11.60
2022-12-20T00:41:38.156Z,11.60
2022-12-20T00:44:39.914Z,11.60
2022-12-20T00:47:41.702Z,11.60
2022-12-20T00:50:43.451Z,11.60
2022-12-20T00:53:46.007Z,11.70
2022-12-20T00:56:47.763Z,11.60
2022-12-20T00:59:49.682Z,11.60
2022-12-20T01:02:51.611Z,11.60
2022-12-20T01:05:55.584Z,11.50
2022-12-20T01:08:58.667Z,11.50
2022-12-20T01:12:00.515Z,11.50
2022-12-20T01:15:03.254Z,11.50
2022-12-20T01:18:05.156Z,11.50
2022-12-20T01:21:10.172Z,11.50
2022-12-20T01:24:17.835Z,11.50
2022-12-20T01:27:19.775Z,11.50
2022-12-20T01:30:21.646Z,11.40
2022-12-20T01:33:24.054Z,11.40
2022-12-20T01:36:32.657Z,11.50
2022-12-20T01:39:34.439Z,11.50
2022-12-20T01:42:37.084Z,11.50
2022-12-20T01:45:39.166Z,11.50
2022-12-20T01:48:44.054Z,11.50
2022-12-20T01:51:50.592Z,11.50
2022-12-20T01:55:00.441Z,11.50
2022-12-20T01:58:12.707Z,11.50
2022-12-20T02:01:14.578Z,11.40
2022-12-20T02:04:16.543Z,11.40
2022-12-20T02:07:24.651Z,11.40
2022-12-20T02:10:41.335Z,11.40
2022-12-20T02:14:04.223Z,11.30
2022-12-20T02:17:33.647Z,11.30
2022-12-20T02:20:54.100Z,11.30
2022-12-20T02:24:20.863Z,11.30
2022-12-20T02:27:30.611Z,11.30
2022-12-20T02:30:37.257Z,11.30
2022-12-20T02:33:43.037Z,11.40
2022-12-20T02:36:44.761Z,11.40
2022-12-20T02:39:47.388Z,11.40
2022-12-20T02:42:53.682Z,11.40
2022-12-20T02:45:58.669Z,11.40
2022-12-20T02:49:05.067Z,11.40
2022-12-20T02:52:09.347Z,11.40
2022-12-20T02:55:11.428Z,11.40
2022-12-20T02:58:24.774Z,11.40
2022-12-20T03:01:34.880Z,11.40
2022-12-20T03:04:39.802Z,11.40
2022-12-20T03:07:41.537Z,11.30
2022-12-20T03:10:44.154Z,11.30
2022-12-20T03:13:46.123Z,11.30
2022-12-20T03:16:47.986Z,11.20
2022-12-20T03:19:50.002Z,11.20
2022-12-20T03:22:51.888Z,11.20
2022-12-20T03:25:53.848Z,11.20
2022-12-20T03:28:55.566Z,11.10
2022-12-20T03:31:57.377Z,11.10
2022-12-20T03:34:59.152Z,11.10
2022-12-20T03:38:01.184Z,11.10
2022-12-20T03:41:03.127Z,11.10
2022-12-20T03:44:05.099Z,11.10
2022-12-20T03:47:07.003Z,11.00
2022-12-20T03:50:09.458Z,11.10
2022-12-20T03:53:11.219Z,11.00
2022-12-20T03:56:13.396Z,11.00
2022-12-20T03:59:15.164Z,11.00
2022-12-20T04:02:17.401Z,10.90
2022-12-20T04:05:19.506Z,10.90
2022-12-20T04:08:21.508Z,10.90
2022-12-20T04:11:23.477Z,11.00
2022-12-20T04:14:25.272Z,11.00
2022-12-20T04:17:27.063Z,11.00
2022-12-20T04:20:28.899Z,10.90
2022-12-20T04:23:30.929Z,11.00
2022-12-20T04:26:33.235Z,11.00
2022-12-20T04:29:35.057Z,11.00
2022-12-20T04:32:37.450Z,11.00
2022-12-20T04:35:39.206Z,10.90
2022-12-20T04:38:41.045Z,10.90
2022-12-20T04:41:43.209Z,10.90
2022-12-20T04:44:44.946Z,10.90
2022-12-20T04:47:46.720Z,10.90
2022-12-20T04:50:49.596Z,10.90
2022-12-20T04:53:51.653Z,10.90
2022-12-20T04:56:53.360Z,10.80
2022-12-20T04:59:55.150Z,10.90
2022-12-20T05:02:57.117Z,10.90
2022-12-20T05:05:59.269Z,10.90
2022-12-20T05:09:01.547Z,10.90
2022-12-20T05:12:05.953Z,10.90
2022-12-20T05:15:11.028Z,10.90
2022-12-20T05:18:12.900Z,10.90
2022-12-20T05:21:33.782Z,10.90
2022-12-20T05:24:54.361Z,10.90
2022-12-20T05:27:56.535Z,10.90
2022-12-20T05:30:59.098Z,10.90
2022-12-20T05:34:01.018Z,10.90
2022-12-20T05:37:02.748Z,11.00
2022-12-20T05:40:05.161Z,11.00
2022-12-20T05:43:07.039Z,11.10
2022-12-20T05:46:09.243Z,11.10
2022-12-20T05:49:11.056Z,11.10
2022-12-20T05:52:12.869Z,11.10
2022-12-20T05:55:14.848Z,11.10
2022-12-20T05:58:17.302Z,11.10
2022-12-20T06:01:19.497Z,11.10
2022-12-20T06:04:21.372Z,11.20
2022-12-20T06:07:23.710Z,11.20
2022-12-20T06:10:26.774Z,11.10
2022-12-20T06:13:28.552Z,11.20
2022-12-20T06:16:30.593Z,11.20
2022-12-20T06:19:33.123Z,11.10
2022-12-20T06:22:35.284Z,11.10
2022-12-20T06:25:38.245Z,11.10
2022-12-20T06:28:42.851Z,11.10
2022-12-20T06:31:44.883Z,11.10
2022-12-20T06:34:46.944Z,11.20
2022-12-20T06:37:48.656Z,11.20
2022-12-20T06:40:50.652Z,11.30
2022-12-20T06:43:52.620Z,11.20
2022-12-20T06:46:54.604Z,11.20
2022-12-20T06:49:56.361Z,11.20
2022-12-20T06:52:58.100Z,11.30
2022-12-20T06:55:59.805Z,11.20
2022-12-20T06:59:02.228Z,11.20
2022-12-20T07:02:05.089Z,11.20
2022-12-20T07:05:07.555Z,11.20
2022-12-20T07:08:10.112Z,11.20
2022-12-20T07:11:12.346Z,11.20
2022-12-20T07:14:14.072Z,11.20
2022-12-20T07:17:16.045Z,11.20
2022-12-20T07:20:18.953Z,11.20
2022-12-20T07:23:20.846Z,11.20
2022-12-20T07:26:22.624Z,11.20
2022-12-20T07:29:25.785Z,11.20
2022-12-20T07:32:27.981Z,11.20
2022-12-20T07:35:29.767Z,11.20
2022-12-20T07:38:31.814Z,11.30
2022-12-20T07:41:33.824Z,11.30
2022-12-20T07:44:35.698Z,11.30
2022-12-20T07:47:38.908Z,11.30
2022-12-20T07:50:41.649Z,11.30
2022-12-20T07:53:50.116Z,11.30
2022-12-20T07:56:57.255Z,11.40
2022-12-20T08:00:02.209Z,11.40
2022-12-20T08:03:31.896Z,11.40
2022-12-20T08:06:37.284Z,11.40
2022-12-20T08:09:44.352Z,11.40
2022-12-20T08:12:47.859Z,11.40
2022-12-20T08:15:49.586Z,11.40
2022-12-20T08:18:51.373Z,11.50
2022-12-20T08:21:53.127Z,11.50
2022-12-20T08:24:55.452Z,11.40
2022-12-20T08:27:57.303Z,11.40
2022-12-20T08:31:04.449Z,11.40
2022-12-20T08:34:06.733Z,11.50
2022-12-20T08:37:14.480Z,11.50
2022-12-20T08:40:16.850Z,11.50
2022-12-20T08:43:18.713Z,11.60
2022-12-20T08:46:20.568Z,11.60
2022-12-20T08:49:22.617Z,11.60
2022-12-20T08:52:24.578Z,11.70
2022-12-20T08:55:29.076Z,11.60
2022-12-20T08:58:31.257Z,11.70
2022-12-20T09:01:34.115Z,11.70
2022-12-20T09:04:36.464Z,11.70
2022-12-20T09:07:38.234Z,11.70
2022-12-20T09:10:40.707Z,11.70
2022-12-20T09:13:44.653Z,11.70
2022-12-20T09:16:46.943Z,11.70
2022-12-20T09:19:49.187Z,11.80
2022-12-20T09:22:50.908Z,11.80
2022-12-20T09:25:54.036Z,11.80
2022-12-20T09:28:57.326Z,11.80
2022-12-20T09:31:59.134Z,11.80
2022-12-20T09:35:00.929Z,11.80
2022-12-20T09:38:02.949Z,11.80
2022-12-20T09:41:07.137Z,11.80
2022-12-20T09:44:34.640Z,11.90
2022-12-20T09:47:37.606Z,11.90
2022-12-20T09:51:32.239Z,11.90
2022-12-20T09:54:36.601Z,11.90
2022-12-20T09:57:46.992Z,11.90
2022-12-20T10:00:54.284Z,11.90
2022-12-20T10:03:58.031Z,11.90
2022-12-20T10:07:00.578Z,11.90
2022-12-20T10:10:39.527Z,12.00
2022-12-20T10:13:53.089Z,12.00
2022-12-20T10:17:05.444Z,12.00
2022-12-20T10:20:20.554Z,12.10
2022-12-20T10:23:32.974Z,12.10
2022-12-20T10:26:35.723Z,12.10
2022-12-20T10:29:37.652Z,12.10
2022-12-20T10:32:40.616Z,12.20
2022-12-20T10:35:43.385Z,12.10
2022-12-20T10:38:49.079Z,12.20
2022-12-20T10:41:52.104Z,12.20
2022-12-20T10:44:55.970Z,12.20
2022-12-20T10:48:00.813Z,12.20
2022-12-20T10:51:15.351Z,12.20
2022-12-20T10:54:24.916Z,12.20
2022-12-20T10:57:29.403Z,12.10
2022-12-20T11:00:32.071Z,12.20
2022-12-20T11:03:33.947Z,12.20
2022-12-20T11:06:38.557Z,12.20
2022-12-20T11:09:56.713Z,12.20
2022-12-20T11:13:01.390Z,12.20
2022-12-20T11:16:03.201Z,12.20
2022-12-20T11:19:14.306Z,12.20
2022-12-20T11:22:37.398Z,12.20
2022-12-20T11:26:09.828Z,12.10
2022-12-20T11:29:30.526Z,12.10
2022-12-20T11:32:49.124Z,12.10
2022-12-20T11:36:00.142Z,12.00
2022-12-20T11:39:22.354Z,11.90
2022-12-20T11:42:24.370Z,11.90
2022-12-20T11:46:13.843Z,11.80
2022-12-20T11:49:28.225Z,11.70
2022-12-20T11:52:35.861Z,11.60
2022-12-20T11:55:42.895Z,11.60
2022-12-20T11:59:00.192Z,11.50
2022-12-20T12:02:14.406Z,11.50
2022-12-20T12:05:35.173Z,11.50
2022-12-20T12:08:50.482Z,11.50
2022-12-20T12:12:13.843Z,11.50
2022-12-20T12:15:17.055Z,11.40
2022-12-20T12:18:23.876Z,11.40
2022-12-20T12:21:27.476Z,11.40
2022-12-20T12:24:39.422Z,11.40
2022-12-20T12:27:43.920Z,11.40
2022-12-20T12:30:52.987Z,11.50
2022-12-20T12:34:16.661Z,11.50
2022-12-20T12:37:46.801Z,11.50
2022-12-20T12:41:00.602Z,11.40
2022-12-20T12:44:20.813Z,11.40
2022-12-20T12:47:33.811Z,11.40
2022-12-20T12:50:39.574Z,11.40
2022-12-20T12:53:53.000Z,11.40
2022-12-20T12:57:03.303Z,11.40
2022-12-20T13:00:44.061Z,11.40
2022-12-20T13:03:55.306Z,11.50
2022-12-20T13:06:59.419Z,11.40
2022-12-20T13:10:29.624Z,11.40
2022-12-20T13:13:31.716Z,11.40
2022-12-20T13:17:10.046Z,11.40
2022-12-20T13:19:56.279Z,11.40
2022-12-20T13:23:13.178Z,11.40
2022-12-20T13:26:48.476Z,11.30
2022-12-20T13:29:59.845Z,11.30
2022-12-20T13:33:24.047Z,11.30
2022-12-20T13:36:49.110Z,11.30
2022-12-20T13:39:51.020Z,11.30
2022-12-20T13:42:56.998Z,11.20
2022-12-20T13:46:17.176Z,11.30
2022-12-20T13:49:34.735Z,11.30
2022-12-20T13:52:43.816Z,11.30
2022-12-20T13:55:46.019Z,11.30
2022-12-20T13:58:47.947Z,11.30
2022-12-20T14:01:52.813Z,11.30
2022-12-20T14:05:02.987Z,11.20
2022-12-20T14:08:20.804Z,11.30
2022-12-20T14:11:27.842Z,11.30
2022-12-20T14:14:29.592Z,11.30
2022-12-20T14:17:33.289Z,11.30
2022-12-20T14:20:37.876Z,11.30
2022-12-20T14:23:47.609Z,11.30
2022-12-20T14:26:52.794Z,11.30
2022-12-20T14:29:54.992Z,11.30
2022-12-20T14:32:57.774Z,11.30
2022-12-20T14:36:09.517Z,11.30
2022-12-20T14:39:34.802Z,11.30
2022-12-20T14:42:38.924Z,11.30
2022-12-20T14:45:40.868Z,11.30
2022-12-20T14:48:43.634Z,11.30
2022-12-20T14:51:46.971Z,11.30
2022-12-20T14:55:10.393Z,11.30
2022-12-20T14:58:35.302Z,11.40
2022-12-20T15:01:41.859Z,11.30
2022-12-20T15:04:45.749Z,11.30
2022-12-20T15:07:48.425Z,11.30
2022-12-20T15:10:50.144Z,11.30
2022-12-20T15:13:54.634Z,11.30
2022-12-20T15:16:56.667Z,11.30
2022-12-20T15:19:59.730Z,11.30
2022-12-20T15:23:02.145Z,11.20
2022-12-20T15:26:04.238Z,11.20
2022-12-20T15:29:07.038Z,11.20
2022-12-20T15:32:29.611Z,11.20
2022-12-20T15:35:31.773Z,11.20
2022-12-20T15:41:56.733Z,11.20
2022-12-20T15:44:58.805Z,11.10
2022-12-20T15:48:00.786Z,11.20
2022-12-20T15:51:07.619Z,11.20
2022-12-20T15:54:27.655Z,11.20
2022-12-20T15:57:30.971Z,11.20
2022-12-20T16:00:32.995Z,11.10
2022-12-20T16:03:35.205Z,11.10
2022-12-20T16:06:37.066Z,11.10
2022-12-20T16:09:39.674Z,11.10
2022-12-20T16:12:42.339Z,11.10
2022-12-20T16:15:44.234Z,11.10
2022-12-20T16:18:46.506Z,11.10
2022-12-20T16:21:50.771Z,11.10
2022-12-20T16:24:52.512Z,11.10
2022-12-20T16:27:54.493Z,11.10
2022-12-20T16:30:56.311Z,11.10
2022-12-20T16:34:00.498Z,11.10
2022-12-20T16:37:02.614Z,11.10
2022-12-20T16:40:04.852Z,11.10
2022-12-20T16:43:14.473Z,11.10
2022-12-20T16:46:19.088Z,11.10
2022-12-20T16:49:21.346Z,11.10
2022-12-20T16:52:23.689Z,11.20
2022-12-20T16:55:27.379Z,11.20
2022-12-20T16:58:59.875Z,11.10
2022-12-20T17:01:57.141Z,11.20
2022-12-20T17:04:59.780Z,11.10
2022-12-20T17:08:01.832Z,11.10
2022-12-20T17:11:09.125Z,11.20
2022-12-20T17:14:13.780Z,11.10
2022-12-20T17:17:15.929Z,11.20
2022-12-20T17:20:22.539Z,11.10
2022-12-20T17:26:43.942Z,11.10
2022-12-20T17:29:45.873Z,11.10
2022-12-20T17:32:48.280Z,11.10
2022-12-20T17:35:50.046Z,11.10
2022-12-20T17:38:52.058Z,11.00
2022-12-20T17:41:55.434Z,11.10
2022-12-20T17:44:57.165Z,11.10
2022-12-20T17:47:59.548Z,11.10
2022-12-20T17:51:01.720Z,11.10
2022-12-20T17:54:03.623Z,11.00
2022-12-20T17:57:05.484Z,11.00
2022-12-20T18:00:08.024Z,11.00
2022-12-20T18:03:30.289Z,11.00
2022-12-20T18:06:33.838Z,11.00
2022-12-20T18:09:36.227Z,11.00
2022-12-20T18:12:39.345Z,11.00
2022-12-20T18:15:41.112Z,11.00
2022-12-20T18:18:43.432Z,11.00
2022-12-20T18:21:45.671Z,11.00
2022-12-20T18:24:47.434Z,11.00
2022-12-20T18:27:49.194Z,10.90
2022-12-20T18:30:50.942Z,10.90
2022-12-20T18:33:57.816Z,10.90
2022-12-20T18:37:01.935Z,10.90
2022-12-20T18:40:04.099Z,10.90
2022-12-20T18:43:06.603Z,10.90
2022-12-20T18:46:12.094Z,10.90
2022-12-20T18:49:14.085Z,10.80
2022-12-20T18:52:16.035Z,10.80
2022-12-20T18:55:17.779Z,10.80
2022-12-20T18:58:19.759Z,10.80
2022-12-20T19:01:27.732Z,10.80
2022-12-20T19:04:29.751Z,10.80
2022-12-20T19:07:32.451Z,10.80
2022-12-20T19:10:34.492Z,10.80
2022-12-20T19:13:37.877Z,10.80
2022-12-20T19:16:40.218Z,10.80
2022-12-20T19:19:42.127Z,10.70
2022-12-20T19:22:43.928Z,10.80
2022-12-20T19:25:45.689Z,10.80
2022-12-20T19:28:47.964Z,10.80
2022-12-20T19:31:50.260Z,10.70
2022-12-20T19:34:52.058Z,10.80
2022-12-20T19:37:53.815Z,10.70
2022-12-20T19:40:55.732Z,10.70
2022-12-20T19:43:58.259Z,10.70
2022-12-20T19:47:06.241Z,10.80
2022-12-20T19:50:09.201Z,10.70
2022-12-20T19:53:11.514Z,10.70
2022-12-20T19:56:16.761Z,10.70
2022-12-20T19:59:18.661Z,10.70
2022-12-20T20:02:20.639Z,10.70
2022-12-20T20:05:22.753Z,10.70
2022-12-20T20:08:25.548Z,10.70
2022-12-20T20:11:27.953Z,10.80
2022-12-20T20:14:30.448Z,10.80
2022-12-20T20:17:32.279Z,10.80
2022-12-20T20:20:34.973Z,10.70
2022-12-20T20:23:37.698Z,10.70
2022-12-20T20:26:39.541Z,10.70
2022-12-20T20:29:41.429Z,10.70
2022-12-20T20:32:43.345Z,10.70
2022-12-20T20:35:54.720Z,10.70
2022-12-20T20:38:57.264Z,10.80
2022-12-20T20:41:59.224Z,10.70
2022-12-20T20:45:00.974Z,10.70
2022-12-20T20:48:06.081Z,10.70
2022-12-20T20:51:08.440Z,10.70
2022-12-20T20:54:10.573Z,10.70
2022-12-20T20:57:12.324Z,10.70
2022-12-20T21:00:14.684Z,10.70
2022-12-20T21:03:16.500Z,10.70
2022-12-20T21:09:40.842Z,10.70
2022-12-20T21:12:43.205Z,10.70
2022-12-20T21:15:46.532Z,10.70
2022-12-20T21:18:52.268Z,10.70
2022-12-20T21:21:54.487Z,10.70
2022-12-20T21:24:57.307Z,10.70
2022-12-20T21:27:59.452Z,10.70
2022-12-20T21:31:03.060Z,10.70
2022-12-20T21:34:05.244Z,10.70
2022-12-20T21:37:07.305Z,10.60
2022-12-20T21:40:10.099Z,10.60
2022-12-20T21:43:11.860Z,10.60
2022-12-20T21:46:14.116Z,10.60
2022-12-20T21:49:16.160Z,10.60
2022-12-20T21:52:18.144Z,10.60
2022-12-20T21:55:20.491Z,10.60
2022-12-20T21:58:26.408Z,10.50
2022-12-20T22:01:30.218Z,10.50
2022-12-20T22:04:33.245Z,10.50
2022-12-20T22:07:35.094Z,10.60
2022-12-20T22:10:36.892Z,10.60
2022-12-20T22:13:41.993Z,10.60
2022-12-20T22:16:44.283Z,10.60
2022-12-20T22:19:46.282Z,10.50
2022-12-20T22:22:48.181Z,10.50
2022-12-20T22:25:50.111Z,10.50
2022-12-20T22:28:58.878Z,10.40
2022-12-20T22:32:00.720Z,10.50
2022-12-20T22:35:02.697Z,10.40
2022-12-20T22:38:06.002Z,10.40
2022-12-20T22:41:19.525Z,10.40
2022-12-20T22:44:21.329Z,10.40
2022-12-20T22:47:23.078Z,10.40
2022-12-20T22:50:25.081Z,10.40
2022-12-20T22:53:27.376Z,10.40
2022-12-20T22:56:29.954Z,10.40
2022-12-20T22:59:33.335Z,10.40
2022-12-20T23:02:35.538Z,10.50
2022-12-20T23:05:37.397Z,10.50
2022-12-20T23:08:40.163Z,10.50
2022-12-20T23:12:00.798Z,10.50
2022-12-20T23:15:21.039Z,10.50
2022-12-20T23:18:23.128Z,10.50
2022-12-20T23:21:44.030Z,10.50
2022-12-20T23:24:46.869Z,10.50
2022-12-20T23:27:50.133Z,10.50
2022-12-20T23:30:51.905Z,10.50
2022-12-20T23:33:53.910Z,10.50
2022-12-20T23:36:55.673Z,10.50
2022-12-20T23:39:57.482Z,10.50
2022-12-20T23:42:59.394Z,10.50
2022-12-20T23:46:11.717Z,10.50
2022-12-20T23:49:13.770Z,10.50
2022-12-20T23:52:15.887Z,10.50
2022-12-20T23:55:17.682Z,10.50
2022-12-20T23:58:19.762Z,10.50
